Decoded Metar for KMHS (MOUNT SHASTA in CA, USA) (IATA:MHS) | Meteo·Mobile Aviation Weather
aviador You're here:

KMHS Decoded Metar

MOUNT SHASTA in CA, USA
Report Time2018-09-20 08:56:00
UTC Time2018-09-20 09:03:24
Flight Rules vfr VFR
WindCalm
Visibility9999 m
Phenomena:N/A
Clouds:N/A
Expected CloudBase > 3,200 ft AGL from Temp-Dew spread
CeilingNone
Temp08°C (ISA 0)
Dew Point00°C (57% RH)
AAT6.0°C
QNH1018 hPa
Density Alt3,465 ft
Elevation3,537 ft
Report Wrong Elevation
Raw Report
KMHS 200856Z AUTO 00000KT 10SM CLR 08/00 A3007 RMK AO2 SLP184
T00780000 53001 $=

Extra information for KMHS:More info

Metar Taf Metar & Taf Last 4 Metars F.Rules Stats Wind Profile Meteogram Temp Stats Airport Information Weather charts Add Link Nearby VenuesMetar ALERT Operation Metar Decoded Social comments

AIRNAV info for KMHS